Lorenzo, Texas
Current Conditions -  °F | °C
As of 7:53 PM on Friday 24 Oct 2014 (Local Time) from KLBB Reporting Station
Clear Clear  
Wind Chill: 73°   Ceiling: Unl
Heat Index: 73°   Visibility: 10mi
Dew Point: 51°   Wind: 9mph
Humidity: 46%   Direction: 180°S
Pressure: 30.12"   Gusts: NA
Location:  33.67°N, 101.54°W
Report Text: KLBB 250053Z 18008KT 10SM CLR 23/11 A3012 RMK AO2 SLP167 T02280106
Loading
Personal Weather Stations






























Interactive Weather Map
Tropical Storm Tracking
New forecast layout! Learn more

10-Day Weather Forecast

Advertisements
Track Severe Weather on mobile